ICE1552 BIAR-BIKF
Flight info
| Callsign | ICE1552 |
|---|---|
| Flight time | 0h 29m |
| Altitude | 22000 |
| Route | ASKUR1B ASKUR DCT DEVUD DEVUD3K |
| Aircraft | B752/M-SDE2E3FGHIJ3J4J7RWXY/LB1 |
Departure
| Time | 2026-04-20 20:25 |
|---|---|
| Airport | Akureyri International Airport (BIAR) |
Arrival
| Time | 2026-04-20 20:54 |
|---|---|
| Airport | Keflavik International Airport (BIKF) |
| Time | Latitude | Longitude | Altitude | Speed | Heading |
|---|---|---|---|---|---|
| 2026-04-20 19:48 | 65.65396 | -18.07496 | 23 ft | 0 kts | 356° |
| 2026-04-20 20:21 | 65.65421 | -18.07485 | 20 ft | 6 kts | 23° |
| 2026-04-20 20:21 | 65.65462 | -18.07372 | 15 ft | 11 kts | 60° |
| 2026-04-20 20:21 | 65.65466 | -18.07173 | 7 ft | 9 kts | 144° |
| 2026-04-20 20:22 | 65.65404 | -18.07148 | 9 ft | 9 kts | 176° |
| 2026-04-20 20:22 | 65.65311 | -18.07133 | 11 ft | 17 kts | 176° |
| 2026-04-20 20:22 | 65.65153 | -18.07104 | 15 ft | 27 kts | 176° |
| 2026-04-20 20:22 | 65.64936 | -18.07061 | 18 ft | 34 kts | 176° |
| 2026-04-20 20:23 | 65.64703 | -18.07017 | 21 ft | 33 kts | 176° |
| 2026-04-20 20:23 | 65.64552 | -18.06988 | 24 ft | 12 kts | 174° |
| 2026-04-20 20:23 | 65.64477 | -18.06943 | 22 ft | 3 kts | 219° |
| 2026-04-20 20:23 | 65.64487 | -18.06982 | 23 ft | 4 kts | 350° |
| 2026-04-20 20:24 | 65.64499 | -18.06982 | 23 ft | 0 kts | 360° |
| 2026-04-20 20:24 | 65.64500 | -18.06982 | 23 ft | 2 kts | 360° |
| 2026-04-20 20:25 | 65.64773 | -18.07029 | 20 ft | 84 kts | 355° |
| 2026-04-20 20:25 | 65.65637 | -18.07195 | 76 ft | 159 kts | 356° |
| 2026-04-20 20:25 | 65.66774 | -18.07380 | 987 ft | 175 kts | 356° |
| 2026-04-20 20:25 | 65.67971 | -18.07578 | 1912 ft | 177 kts | 356° |
| 2026-04-20 20:26 | 65.69206 | -18.07731 | 2689 ft | 180 kts | 6° |
| 2026-04-20 20:26 | 65.70356 | -18.06602 | 3326 ft | 191 kts | 45° |
| 2026-04-20 20:26 | 65.71005 | -18.03754 | 3916 ft | 207 kts | 79° |
| 2026-04-20 20:26 | 65.70869 | -18.00134 | 4385 ft | 230 kts | 114° |
| 2026-04-20 20:27 | 65.69911 | -17.96971 | 5006 ft | 246 kts | 144° |
| 2026-04-20 20:27 | 65.68337 | -17.95311 | 5659 ft | 257 kts | 176° |
| 2026-04-20 20:27 | 65.66542 | -17.95790 | 6283 ft | 270 kts | 202° |
| 2026-04-20 20:27 | 65.64997 | -17.98250 | 7099 ft | 270 kts | 224° |
| 2026-04-20 20:28 | 65.63540 | -18.01015 | 8071 ft | 274 kts | 214° |
| 2026-04-20 20:28 | 65.61895 | -18.03554 | 8665 ft | 289 kts | 213° |
| 2026-04-20 20:28 | 65.58617 | -18.08374 | 10381 ft | 295 kts | 214° |
| 2026-04-20 20:28 | 65.55119 | -18.13801 | 11265 ft | 332 kts | 215° |
| 2026-04-20 20:29 | 65.51508 | -18.19471 | 12249 ft | 356 kts | 214° |
| 2026-04-20 20:29 | 65.47375 | -18.25965 | 13827 ft | 365 kts | 215° |
| 2026-04-20 20:29 | 65.43157 | -18.32580 | 15298 ft | 374 kts | 215° |
| 2026-04-20 20:29 | 65.38843 | -18.39326 | 16672 ft | 383 kts | 215° |
| 2026-04-20 20:30 | 65.34533 | -18.46039 | 17932 ft | 392 kts | 215° |
| 2026-04-20 20:30 | 65.29985 | -18.53093 | 19260 ft | 399 kts | 215° |
| 2026-04-20 20:30 | 65.25421 | -18.60143 | 20522 ft | 406 kts | 215° |
| 2026-04-20 20:30 | 65.20781 | -18.67282 | 21646 ft | 415 kts | 214° |
| 2026-04-20 20:31 | 65.16379 | -18.75518 | 21927 ft | 415 kts | 221° |
| 2026-04-20 20:31 | 65.12053 | -18.84088 | 21935 ft | 408 kts | 221° |
| 2026-04-20 20:31 | 65.07731 | -18.92631 | 21947 ft | 409 kts | 221° |
| 2026-04-20 20:31 | 65.03371 | -19.01213 | 21944 ft | 409 kts | 221° |
| 2026-04-20 20:32 | 64.99029 | -19.09722 | 21942 ft | 410 kts | 221° |
| 2026-04-20 20:32 | 64.94752 | -19.18065 | 21931 ft | 409 kts | 221° |
| 2026-04-20 20:32 | 64.90598 | -19.26139 | 21930 ft | 409 kts | 221° |
| 2026-04-20 20:32 | 64.86525 | -19.34023 | 21931 ft | 408 kts | 221° |
| 2026-04-20 20:33 | 64.82277 | -19.42211 | 21943 ft | 409 kts | 221° |
| 2026-04-20 20:33 | 64.77957 | -19.50501 | 21943 ft | 409 kts | 221° |
| 2026-04-20 20:33 | 64.73724 | -19.58591 | 21919 ft | 410 kts | 221° |
| 2026-04-20 20:33 | 64.70884 | -19.64000 | 21916 ft | 409 kts | 221° |
| 2026-04-20 20:34 | 64.68682 | -19.68184 | 21919 ft | 410 kts | 220° |
| 2026-04-20 20:34 | 64.66487 | -19.72343 | 21922 ft | 410 kts | 220° |
| 2026-04-20 20:34 | 64.64264 | -19.76549 | 21928 ft | 409 kts | 220° |
| 2026-04-20 20:34 | 64.62044 | -19.80741 | 21898 ft | 409 kts | 220° |
| 2026-04-20 20:35 | 64.59879 | -19.84817 | 21645 ft | 401 kts | 220° |
| 2026-04-20 20:35 | 64.57716 | -19.88882 | 21383 ft | 391 kts | 219° |
| 2026-04-20 20:35 | 64.55606 | -19.92839 | 21135 ft | 389 kts | 220° |
| 2026-04-20 20:35 | 64.53495 | -19.96792 | 20892 ft | 391 kts | 219° |
| 2026-04-20 20:36 | 64.51392 | -20.00720 | 20642 ft | 391 kts | 219° |
| 2026-04-20 20:36 | 64.49259 | -20.04697 | 20388 ft | 390 kts | 219° |
| 2026-04-20 20:36 | 64.47147 | -20.08625 | 20138 ft | 389 kts | 219° |
| 2026-04-20 20:36 | 64.45052 | -20.12516 | 19885 ft | 387 kts | 219° |
| 2026-04-20 20:37 | 64.42954 | -20.16402 | 19599 ft | 386 kts | 219° |
| 2026-04-20 20:37 | 64.40849 | -20.20293 | 19286 ft | 384 kts | 219° |
| 2026-04-20 20:37 | 64.38786 | -20.24101 | 18949 ft | 382 kts | 219° |
| 2026-04-20 20:37 | 64.36717 | -20.27912 | 18603 ft | 381 kts | 219° |
| 2026-04-20 20:38 | 64.34662 | -20.31689 | 18229 ft | 379 kts | 219° |
| 2026-04-20 20:38 | 64.32593 | -20.35485 | 17856 ft | 377 kts | 219° |
| 2026-04-20 20:38 | 64.30600 | -20.39242 | 17469 ft | 373 kts | 224° |
| 2026-04-20 20:38 | 64.28972 | -20.43853 | 17097 ft | 370 kts | 240° |
| 2026-04-20 20:39 | 64.27972 | -20.49226 | 16726 ft | 368 kts | 257° |
| 2026-04-20 20:39 | 64.27542 | -20.55018 | 16350 ft | 366 kts | 264° |
| 2026-04-20 20:39 | 64.27209 | -20.60820 | 15953 ft | 364 kts | 264° |
| 2026-04-20 20:39 | 64.26884 | -20.66550 | 15563 ft | 362 kts | 263° |
| 2026-04-20 20:40 | 64.26565 | -20.72282 | 15162 ft | 359 kts | 263° |
| 2026-04-20 20:40 | 64.26254 | -20.77902 | 14768 ft | 358 kts | 263° |
| 2026-04-20 20:40 | 64.25938 | -20.83613 | 14365 ft | 356 kts | 263° |
| 2026-04-20 20:40 | 64.25627 | -20.89244 | 13975 ft | 354 kts | 263° |
| 2026-04-20 20:41 | 64.25318 | -20.94799 | 13599 ft | 353 kts | 263° |
| 2026-04-20 20:41 | 64.25005 | -21.00395 | 13222 ft | 349 kts | 262° |
| 2026-04-20 20:41 | 64.24695 | -21.05880 | 12866 ft | 348 kts | 263° |
| 2026-04-20 20:41 | 64.24380 | -21.11417 | 12503 ft | 346 kts | 263° |
| 2026-04-20 20:42 | 64.24069 | -21.16861 | 12144 ft | 344 kts | 263° |
| 2026-04-20 20:42 | 64.23758 | -21.22270 | 11786 ft | 341 kts | 263° |
| 2026-04-20 20:42 | 64.23448 | -21.27622 | 11436 ft | 339 kts | 263° |
| 2026-04-20 20:42 | 64.23140 | -21.32914 | 11087 ft | 337 kts | 263° |
| 2026-04-20 20:43 | 64.22826 | -21.38264 | 10698 ft | 337 kts | 263° |
| 2026-04-20 20:43 | 64.22506 | -21.43683 | 10122 ft | 336 kts | 263° |
| 2026-04-20 20:43 | 64.22198 | -21.48870 | 10039 ft | 319 kts | 263° |
| 2026-04-20 20:43 | 64.21908 | -21.53740 | 9876 ft | 299 kts | 263° |
| 2026-04-20 20:44 | 64.21632 | -21.58316 | 9532 ft | 286 kts | 262° |
| 2026-04-20 20:44 | 64.21358 | -21.62845 | 9123 ft | 283 kts | 262° |
| 2026-04-20 20:44 | 64.21091 | -21.67244 | 8821 ft | 271 kts | 261° |
| 2026-04-20 20:44 | 64.20834 | -21.71456 | 8485 ft | 267 kts | 261° |
| 2026-04-20 20:45 | 64.20575 | -21.75676 | 8176 ft | 270 kts | 262° |
| 2026-04-20 20:45 | 64.20310 | -21.79969 | 7920 ft | 272 kts | 262° |
| 2026-04-20 20:45 | 64.20044 | -21.84267 | 7612 ft | 270 kts | 262° |
| 2026-04-20 20:45 | 64.19784 | -21.88455 | 7341 ft | 267 kts | 261° |
| 2026-04-20 20:46 | 64.19518 | -21.92691 | 7065 ft | 267 kts | 261° |
| 2026-04-20 20:46 | 64.19253 | -21.96910 | 6772 ft | 267 kts | 261° |
| 2026-04-20 20:46 | 64.18990 | -22.01068 | 6436 ft | 265 kts | 261° |
| 2026-04-20 20:46 | 64.18727 | -22.05212 | 6103 ft | 262 kts | 261° |
| 2026-04-20 20:47 | 64.18464 | -22.09346 | 5779 ft | 259 kts | 261° |
| 2026-04-20 20:47 | 64.18205 | -22.13386 | 5466 ft | 258 kts | 261° |
| 2026-04-20 20:47 | 64.17944 | -22.17450 | 5150 ft | 258 kts | 261° |
| 2026-04-20 20:47 | 64.17678 | -22.21540 | 4831 ft | 258 kts | 261° |
| 2026-04-20 20:48 | 64.17414 | -22.25602 | 4331 ft | 260 kts | 261° |
| 2026-04-20 20:48 | 64.17148 | -22.29694 | 3959 ft | 259 kts | 261° |
| 2026-04-20 20:48 | 64.16888 | -22.33649 | 3945 ft | 244 kts | 261° |
| 2026-04-20 20:48 | 64.16642 | -22.37401 | 3765 ft | 238 kts | 261° |
| 2026-04-20 20:49 | 64.16393 | -22.41140 | 3202 ft | 239 kts | 259° |
| 2026-04-20 20:49 | 64.15951 | -22.44740 | 2749 ft | 232 kts | 249° |
| 2026-04-20 20:49 | 64.15411 | -22.48151 | 2708 ft | 220 kts | 250° |
| 2026-04-20 20:49 | 64.14922 | -22.51298 | 2652 ft | 202 kts | 249° |
| 2026-04-20 20:50 | 64.14472 | -22.54171 | 2713 ft | 185 kts | 249° |
| 2026-04-20 20:50 | 64.14026 | -22.56989 | 2675 ft | 193 kts | 248° |
| 2026-04-20 20:50 | 64.13256 | -22.59508 | 2500 ft | 199 kts | 212° |
| 2026-04-20 20:50 | 64.11964 | -22.60468 | 2238 ft | 196 kts | 180° |
| 2026-04-20 20:51 | 64.10603 | -22.60452 | 1939 ft | 199 kts | 180° |
| 2026-04-20 20:51 | 64.09226 | -22.60500 | 1789 ft | 189 kts | 181° |
| 2026-04-20 20:51 | 64.08004 | -22.60547 | 1795 ft | 163 kts | 180° |
| 2026-04-20 20:51 | 64.06920 | -22.60560 | 1744 ft | 157 kts | 179° |
| 2026-04-20 20:52 | 64.05846 | -22.60564 | 1523 ft | 147 kts | 179° |
| 2026-04-20 20:52 | 64.04868 | -22.60566 | 1286 ft | 132 kts | 179° |
| 2026-04-20 20:52 | 64.03986 | -22.60564 | 1106 ft | 126 kts | 179° |
| 2026-04-20 20:52 | 64.03098 | -22.60549 | 961 ft | 130 kts | 179° |
| 2026-04-20 20:53 | 64.02200 | -22.60546 | 786 ft | 130 kts | 180° |
| 2026-04-20 20:53 | 64.01293 | -22.60551 | 601 ft | 130 kts | 180° |
| 2026-04-20 20:53 | 64.00383 | -22.60551 | 419 ft | 131 kts | 181° |
| 2026-04-20 20:53 | 63.99465 | -22.60549 | 241 ft | 129 kts | 180° |
| 2026-04-20 20:54 | 63.98592 | -22.60551 | 156 ft | 115 kts | 180° |
| 2026-04-20 20:54 | 63.97975 | -22.60559 | 161 ft | 67 kts | 180° |
| 2026-04-20 20:54 | 63.97639 | -22.60552 | 158 ft | 34 kts | 181° |
| 2026-04-20 20:54 | 63.97459 | -22.60611 | 152 ft | 18 kts | 228° |
| 2026-04-20 20:55 | 63.97445 | -22.60794 | 149 ft | 6 kts | 282° |
| 2026-04-20 20:55 | 63.97459 | -22.60883 | 148 ft | 7 kts | 303° |
| 2026-04-20 20:55 | 63.97511 | -22.60945 | 148 ft | 10 kts | 356° |
| 2026-04-20 20:55 | 63.97615 | -22.60946 | 150 ft | 22 kts | 0° |
| 2026-04-20 20:56 | 63.97826 | -22.60946 | 151 ft | 33 kts | 0° |
| 2026-04-20 20:56 | 63.98031 | -22.60946 | 154 ft | 27 kts | 1° |
| 2026-04-20 20:56 | 63.98222 | -22.60947 | 154 ft | 27 kts | 1° |
| 2026-04-20 20:56 | 63.98420 | -22.60945 | 151 ft | 28 kts | 0° |
| 2026-04-20 20:57 | 63.98619 | -22.60945 | 151 ft | 28 kts | 0° |
| 2026-04-20 20:57 | 63.98823 | -22.60946 | 150 ft | 29 kts | 1° |
| 2026-04-20 20:57 | 63.99029 | -22.60946 | 146 ft | 30 kts | 0° |
| 2026-04-20 20:57 | 63.99165 | -22.61016 | 146 ft | 15 kts | 291° |
| 2026-04-20 20:58 | 63.99173 | -22.61275 | 144 ft | 19 kts | 269° |
| 2026-04-20 20:58 | 63.99173 | -22.61677 | 143 ft | 31 kts | 269° |
| 2026-04-20 20:58 | 63.99173 | -22.62134 | 143 ft | 14 kts | 269° |
| 2026-04-20 20:58 | 63.99176 | -22.62293 | 143 ft | 2 kts | 304° |
| 2026-04-20 20:59 | 63.99199 | -22.62313 | 143 ft | 4 kts | 360° |
| 2026-04-20 20:59 | 63.99239 | -22.62312 | 143 ft | 6 kts | 1° |
| 2026-04-20 20:59 | 63.99273 | -22.62313 | 143 ft | 0 kts | 360° |